sensor_id;sensor_type;location;lat;lon;timestamp;pressure;altitude;pressure_sealevel;temperature;humidity
15314;BME280;7757;52.626;4.746;2023-03-31T00:01:03;100021.47;;;16.57;62.19
15314;BME280;7757;52.626;4.746;2023-03-31T00:03:48;100040.22;;;16.64;62.18
15314;BME280;7757;52.626;4.746;2023-03-31T00:06:35;100025.91;;;16.63;62.40
15314;BME280;7757;52.626;4.746;2023-03-31T00:09:21;100018.28;;;16.60;62.91
15314;BME280;7757;52.626;4.746;2023-03-31T00:12:07;100004.25;;;16.58;62.44
15314;BME280;7757;52.626;4.746;2023-03-31T00:14:54;99996.38;;;16.57;62.29
15314;BME280;7757;52.626;4.746;2023-03-31T00:17:39;100001.88;;;16.62;62.25
15314;BME280;7757;52.626;4.746;2023-03-31T00:20:26;100001.28;;;16.60;62.55
15314;BME280;7757;52.626;4.746;2023-03-31T00:23:11;99996.97;;;16.59;62.49
15314;BME280;7757;52.626;4.746;2023-03-31T00:25:57;99985.69;;;16.50;62.67
15314;BME280;7757;52.626;4.746;2023-03-31T00:28:42;99986.16;;;16.59;62.32
15314;BME280;7757;52.626;4.746;2023-03-31T00:31:32;99972.91;;;16.57;62.19
15314;BME280;7757;52.626;4.746;2023-03-31T00:34:17;99974.28;;;16.60;62.54
15314;BME280;7757;52.626;4.746;2023-03-31T00:37:03;99973.72;;;16.58;63.00
15314;BME280;7757;52.626;4.746;2023-03-31T00:39:48;99971.25;;;16.56;62.67
15314;BME280;7757;52.626;4.746;2023-03-31T00:42:38;99961.03;;;16.58;62.25
15314;BME280;7757;52.626;4.746;2023-03-31T00:45:27;99957.53;;;16.58;63.13
15314;BME280;7757;52.626;4.746;2023-03-31T00:48:16;99940.28;;;16.59;62.49
15314;BME280;7757;52.626;4.746;2023-03-31T00:51:04;99940.41;;;16.52;63.21
15314;BME280;7757;52.626;4.746;2023-03-31T00:53:53;99933.44;;;16.56;63.12
15314;BME280;7757;52.626;4.746;2023-03-31T00:56:44;99919.41;;;16.54;62.37
15314;BME280;7757;52.626;4.746;2023-03-31T00:59:35;99922.44;;;16.58;62.55
15314;BME280;7757;52.626;4.746;2023-03-31T01:02:22;99912.69;;;16.57;62.89
15314;BME280;7757;52.626;4.746;2023-03-31T01:05:10;99903.75;;;16.56;62.87
15314;BME280;7757;52.626;4.746;2023-03-31T01:07:59;99901.06;;;16.56;62.59
15314;BME280;7757;52.626;4.746;2023-03-31T01:10:49;99896.75;;;16.55;63.05
15314;BME280;7757;52.626;4.746;2023-03-31T01:13:38;99895.09;;;16.54;62.81
15314;BME280;7757;52.626;4.746;2023-03-31T01:16:23;99888.88;;;16.54;63.15
15314;BME280;7757;52.626;4.746;2023-03-31T01:19:14;99887.00;;;16.54;62.60
15314;BME280;7757;52.626;4.746;2023-03-31T01:22:21;99884.31;;;16.54;62.90
15314;BME280;7757;52.626;4.746;2023-03-31T01:28:40;99865.63;;;16.53;62.98
15314;BME280;7757;52.626;4.746;2023-03-31T01:31:53;99858.03;;;16.50;63.40
15314;BME280;7757;52.626;4.746;2023-03-31T01:35:13;99848.38;;;16.54;62.82
15314;BME280;7757;52.626;4.746;2023-03-31T01:38:31;99849.44;;;16.53;63.64
15314;BME280;7757;52.626;4.746;2023-03-31T01:41:36;99843.22;;;16.52;63.70
15314;BME280;7757;52.626;4.746;2023-03-31T01:44:29;99814.97;;;16.38;63.67
15314;BME280;7757;52.626;4.746;2023-03-31T01:47:19;99832.66;;;16.51;63.37
15314;BME280;7757;52.626;4.746;2023-03-31T01:50:16;99828.09;;;16.51;63.22
15314;BME280;7757;52.626;4.746;2023-03-31T01:53:13;99815.66;;;16.50;63.42
15314;BME280;7757;52.626;4.746;2023-03-31T01:56:04;99805.66;;;16.51;62.97
15314;BME280;7757;52.626;4.746;2023-03-31T01:58:57;99798.34;;;16.46;63.35
15314;BME280;7757;52.626;4.746;2023-03-31T02:01:48;99798.66;;;16.50;62.88
15314;BME280;7757;52.626;4.746;2023-03-31T02:04:39;99794.31;;;16.49;63.28
15314;BME280;7757;52.626;4.746;2023-03-31T02:07:28;99786.22;;;16.49;63.08
15314;BME280;7757;52.626;4.746;2023-03-31T02:10:17;99784.56;;;16.48;63.38
15314;BME280;7757;52.626;4.746;2023-03-31T02:13:03;99781.31;;;16.46;63.05
15314;BME280;7757;52.626;4.746;2023-03-31T02:15:52;99778.63;;;16.46;63.70
15314;BME280;7757;52.626;4.746;2023-03-31T02:18:41;99768.66;;;16.46;63.64
15314;BME280;7757;52.626;4.746;2023-03-31T02:21:31;99766.19;;;16.45;63.29
15314;BME280;7757;52.626;4.746;2023-03-31T02:24:19;99763.81;;;16.48;63.72
15314;BME280;7757;52.626;4.746;2023-03-31T02:27:10;99753.00;;;16.48;63.36
15314;BME280;7757;52.626;4.746;2023-03-31T02:29:58;99729.72;;;16.42;63.04
15314;BME280;7757;52.626;4.746;2023-03-31T02:32:45;99730.03;;;16.46;63.17
15314;BME280;7757;52.626;4.746;2023-03-31T02:35:32;99719.25;;;16.46;63.58
15314;BME280;7757;52.626;4.746;2023-03-31T02:38:19;99718.19;;;16.47;63.52
15314;BME280;7757;52.626;4.746;2023-03-31T02:41:05;99702.00;;;16.47;63.18
15314;BME280;7757;52.626;4.746;2023-03-31T02:43:50;99696.34;;;16.48;63.56
15314;BME280;7757;52.626;4.746;2023-03-31T02:46:36;99680.91;;;16.44;63.10
15314;BME280;7757;52.626;4.746;2023-03-31T02:49:23;99680.41;;;16.47;63.57
15314;BME280;7757;52.626;4.746;2023-03-31T02:52:21;99676.06;;;16.46;63.33
15314;BME280;7757;52.626;4.746;2023-03-31T02:55:28;99664.72;;;16.44;63.77
15314;BME280;7757;52.626;4.746;2023-03-31T02:58:39;99663.63;;;16.45;63.56
15314;BME280;7757;52.626;4.746;2023-03-31T03:01:42;99647.16;;;16.41;63.31
15314;BME280;7757;52.626;4.746;2023-03-31T03:04:48;99637.41;;;16.40;63.54
15314;BME280;7757;52.626;4.746;2023-03-31T03:07:42;99641.25;;;16.44;63.51
15314;BME280;7757;52.626;4.746;2023-03-31T03:10:38;99618.22;;;16.37;63.78
15314;BME280;7757;52.626;4.746;2023-03-31T03:13:34;99621.78;;;16.42;63.43
15314;BME280;7757;52.626;4.746;2023-03-31T03:16:23;99609.88;;;16.38;62.97
15314;BME280;7757;52.626;4.746;2023-03-31T03:19:17;99600.69;;;16.39;63.47
15314;BME280;7757;52.626;4.746;2023-03-31T03:22:04;99592.66;;;16.44;63.88
15314;BME280;7757;52.626;4.746;2023-03-31T03:24:49;99584.00;;;16.42;63.37
15314;BME280;7757;52.626;4.746;2023-03-31T03:27:35;99568.56;;;16.38;63.28
15314;BME280;7757;52.626;4.746;2023-03-31T03:30:21;99568.00;;;16.36;63.61
15314;BME280;7757;52.626;4.746;2023-03-31T03:33:06;99557.81;;;16.43;63.85
15314;BME280;7757;52.626;4.746;2023-03-31T03:35:52;99559.69;;;16.42;63.59
15314;BME280;7757;52.626;4.746;2023-03-31T03:38:39;99544.28;;;16.38;63.65
15314;BME280;7757;52.626;4.746;2023-03-31T03:41:24;99538.38;;;16.41;63.67
15314;BME280;7757;52.626;4.746;2023-03-31T03:44:10;99519.94;;;16.33;63.54
15314;BME280;7757;52.626;4.746;2023-03-31T03:46:55;99525.41;;;16.38;64.20
15314;BME280;7757;52.626;4.746;2023-03-31T03:49:41;99516.44;;;16.32;63.54
15314;BME280;7757;52.626;4.746;2023-03-31T03:52:26;99506.50;;;16.38;64.12
15314;BME280;7757;52.626;4.746;2023-03-31T03:55:13;99510.03;;;16.38;63.42
15314;BME280;7757;52.626;4.746;2023-03-31T03:57:58;99495.44;;;16.39;63.67
15314;BME280;7757;52.626;4.746;2023-03-31T04:00:44;99493.03;;;16.38;63.69
15314;BME280;7757;52.626;4.746;2023-03-31T04:03:29;99485.16;;;16.36;63.70
15314;BME280;7757;52.626;4.746;2023-03-31T04:06:15;99470.84;;;16.36;63.66
15314;BME280;7757;52.626;4.746;2023-03-31T04:09:00;99465.47;;;16.36;63.40
15314;BME280;7757;52.626;4.746;2023-03-31T04:11:47;99456.81;;;16.34;63.91
15314;BME280;7757;52.626;4.746;2023-03-31T04:14:33;99452.47;;;16.33;63.34
15314;BME280;7757;52.626;4.746;2023-03-31T04:17:18;99444.38;;;16.33;63.48
15314;BME280;7757;52.626;4.746;2023-03-31T04:20:15;99439.28;;;16.36;63.03
15314;BME280;7757;52.626;4.746;2023-03-31T04:23:01;99426.31;;;16.33;63.96
15314;BME280;7757;52.626;4.746;2023-03-31T04:25:49;99409.88;;;16.35;63.30
15314;BME280;7757;52.626;4.746;2023-03-31T04:28:37;99406.06;;;16.31;63.89
15314;BME280;7757;52.626;4.746;2023-03-31T04:31:26;99410.72;;;16.35;63.22
15314;BME280;7757;52.626;4.746;2023-03-31T04:34:14;99394.44;;;16.25;63.74
15314;BME280;7757;52.626;4.746;2023-03-31T04:36:59;99397.44;;;16.29;63.28
15314;BME280;7757;52.626;4.746;2023-03-31T04:39:45;99376.91;;;16.28;64.04
15314;BME280;7757;52.626;4.746;2023-03-31T04:42:33;99380.16;;;16.30;64.00
15314;BME280;7757;52.626;4.746;2023-03-31T04:45:20;99369.94;;;16.32;64.14
15314;BME280;7757;52.626;4.746;2023-03-31T04:48:06;99361.03;;;16.31;63.52
15314;BME280;7757;52.626;4.746;2023-03-31T04:50:51;99346.72;;;16.31;63.77
15314;BME280;7757;52.626;4.746;2023-03-31T04:53:37;99336.97;;;16.30;63.86
15314;BME280;7757;52.626;4.746;2023-03-31T04:56:22;99338.63;;;16.31;63.77
15314;BME280;7757;52.626;4.746;2023-03-31T04:59:07;99327.53;;;16.27;64.18
15314;BME280;7757;52.626;4.746;2023-03-31T05:01:55;99335.09;;;16.30;63.54
15314;BME280;7757;52.626;4.746;2023-03-31T05:04:43;99316.50;;;16.29;63.21
15314;BME280;7757;52.626;4.746;2023-03-31T05:07:29;99312.97;;;16.28;63.15
15314;BME280;7757;52.626;4.746;2023-03-31T05:10:14;99302.19;;;16.28;63.60
15314;BME280;7757;52.626;4.746;2023-03-31T05:13:00;99298.34;;;16.19;63.62
15314;BME280;7757;52.626;4.746;2023-03-31T05:15:45;99294.88;;;16.24;64.01
15314;BME280;7757;52.626;4.746;2023-03-31T05:18:34;99282.47;;;16.23;63.67
15314;BME280;7757;52.626;4.746;2023-03-31T05:21:20;99293.25;;;16.23;63.23
15314;BME280;7757;52.626;4.746;2023-03-31T05:24:06;99270.84;;;16.17;63.51
15314;BME280;7757;52.626;4.746;2023-03-31T05:26:51;99273.00;;;16.20;63.36
15314;BME280;7757;52.626;4.746;2023-03-31T05:29:37;99261.09;;;16.11;63.49
15314;BME280;7757;52.626;4.746;2023-03-31T05:32:23;99271.13;;;16.21;63.55
15314;BME280;7757;52.626;4.746;2023-03-31T05:35:10;99263.81;;;16.21;63.95
15314;BME280;7757;52.626;4.746;2023-03-31T05:37:55;99263.81;;;16.21;63.94
15314;BME280;7757;52.626;4.746;2023-03-31T05:40:40;99250.28;;;16.11;64.19
15314;BME280;7757;52.626;4.746;2023-03-31T05:43:25;99253.28;;;16.14;64.11
15314;BME280;7757;52.626;4.746;2023-03-31T05:46:11;99267.63;;;16.20;63.92
15314;BME280;7757;52.626;4.746;2023-03-31T05:48:56;99261.66;;;16.18;63.19
15314;BME280;7757;52.626;4.746;2023-03-31T05:51:43;99244.38;;;16.14;63.35
15314;BME280;7757;52.626;4.746;2023-03-31T05:54:29;99239.22;;;16.12;63.57
15314;BME280;7757;52.626;4.746;2023-03-31T05:57:14;99244.69;;;16.17;63.88
15314;BME280;7757;52.626;4.746;2023-03-31T06:00:00;99238.16;;;16.13;64.21
15314;BME280;7757;52.626;4.746;2023-03-31T06:02:45;99241.97;;;16.17;63.96
15314;BME280;7757;52.626;4.746;2023-03-31T06:05:31;99219.00;;;16.10;63.87
15314;BME280;7757;52.626;4.746;2023-03-31T06:08:17;99229.03;;;16.19;63.00
15314;BME280;7757;52.626;4.746;2023-03-31T06:11:04;99230.16;;;16.24;63.50
15314;BME280;7757;52.626;4.746;2023-03-31T06:13:50;99210.69;;;16.22;63.80
15314;BME280;7757;52.626;4.746;2023-03-31T06:16:35;99212.56;;;16.21;63.66
15314;BME280;7757;52.626;4.746;2023-03-31T06:19:21;99222.59;;;16.26;63.26
15314;BME280;7757;52.626;4.746;2023-03-31T06:22:07;99185.03;;;16.09;63.43
15314;BME280;7757;52.626;4.746;2023-03-31T06:24:54;99214.22;;;16.27;63.08
15314;BME280;7757;52.626;4.746;2023-03-31T06:27:39;99204.78;;;16.25;63.71
15314;BME280;7757;52.626;4.746;2023-03-31T06:30:25;99211.00;;;16.30;63.70
15314;BME280;7757;52.626;4.746;2023-03-31T06:33:10;99195.09;;;16.29;63.16
15314;BME280;7757;52.626;4.746;2023-03-31T06:35:56;99192.69;;;16.32;63.09
15314;BME280;7757;52.626;4.746;2023-03-31T06:38:42;99195.66;;;16.36;63.00
15314;BME280;7757;52.626;4.746;2023-03-31T06:41:28;99188.13;;;16.38;62.96
15314;BME280;7757;52.626;4.746;2023-03-31T06:44:14;99189.19;;;16.42;63.38
15314;BME280;7757;52.626;4.746;2023-03-31T06:47:02;99186.78;;;16.40;63.10
15314;BME280;7757;52.626;4.746;2023-03-31T06:49:47;99183.00;;;16.41;62.82
15314;BME280;7757;52.626;4.746;2023-03-31T06:52:33;99177.63;;;16.41;63.33
15314;BME280;7757;52.626;4.746;2023-03-31T06:55:18;99173.81;;;16.42;63.03
15314;BME280;7757;52.626;4.746;2023-03-31T06:58:04;99164.91;;;16.42;63.04
15314;BME280;7757;52.626;4.746;2023-03-31T07:00:50;99173.03;;;16.47;62.59
15314;BME280;7757;52.626;4.746;2023-03-31T07:03:36;99170.34;;;16.47;62.64
15314;BME280;7757;52.626;4.746;2023-03-31T07:06:22;99174.09;;;16.46;62.29
15314;BME280;7757;52.626;4.746;2023-03-31T07:09:07;99171.41;;;16.46;62.35
15314;BME280;7757;52.626;4.746;2023-03-31T07:11:52;99165.19;;;16.45;62.74
15314;BME280;7757;52.626;4.746;2023-03-31T07:14:39;99172.75;;;16.48;62.83
15314;BME280;7757;52.626;4.746;2023-03-31T07:17:24;99166.56;;;16.48;62.57
15314;BME280;7757;52.626;4.746;2023-03-31T07:20:12;99164.13;;;16.46;63.13
15314;BME280;7757;52.626;4.746;2023-03-31T07:22:57;99177.09;;;16.44;62.80
15314;BME280;7757;52.626;4.746;2023-03-31T07:25:43;99157.38;;;16.44;63.30
15314;BME280;7757;52.626;4.746;2023-03-31T07:28:29;99166.00;;;16.46;62.84
15314;BME280;7757;52.626;4.746;2023-03-31T07:31:16;99162.78;;;16.49;62.36
15314;BME280;7757;52.626;4.746;2023-03-31T07:34:01;99142.53;;;16.46;61.99
15314;BME280;7757;52.626;4.746;2023-03-31T07:36:46;99146.06;;;16.52;62.65
15314;BME280;7757;52.626;4.746;2023-03-31T07:39:32;99147.94;;;16.51;62.61
15314;BME280;7757;52.626;4.746;2023-03-31T07:42:19;99154.41;;;16.50;62.72
15314;BME280;7757;52.626;4.746;2023-03-31T07:45:06;99133.63;;;16.46;62.23
15314;BME280;7757;52.626;4.746;2023-03-31T07:47:54;99142.25;;;16.48;63.06
15314;BME280;7757;52.626;4.746;2023-03-31T07:50:39;99139.84;;;16.51;62.12
15314;BME280;7757;52.626;4.746;2023-03-31T07:53:24;99137.97;;;16.52;62.25
15314;BME280;7757;52.626;4.746;2023-03-31T07:56:10;99135.81;;;16.49;62.11
15314;BME280;7757;52.626;4.746;2023-03-31T07:58:55;99124.47;;;16.47;62.52
15314;BME280;7757;52.626;4.746;2023-03-31T08:01:41;99132.81;;;16.45;62.25
15314;BME280;7757;52.626;4.746;2023-03-31T08:04:28;99134.97;;;16.43;62.56
15314;BME280;7757;52.626;4.746;2023-03-31T08:07:14;99110.41;;;16.40;62.16
15314;BME280;7757;52.626;4.746;2023-03-31T08:09:59;99134.19;;;16.53;62.47
15314;BME280;7757;52.626;4.746;2023-03-31T08:12:45;99125.03;;;16.54;62.54
15314;BME280;7757;52.626;4.746;2023-03-31T08:15:30;99117.22;;;16.57;62.79
15314;BME280;7757;52.626;4.746;2023-03-31T08:18:16;99120.75;;;16.58;62.55
15314;BME280;7757;52.626;4.746;2023-03-31T08:21:03;99111.88;;;16.67;62.32
15314;BME280;7757;52.626;4.746;2023-03-31T08:23:48;99109.97;;;16.73;62.24
15314;BME280;7757;52.626;4.746;2023-03-31T08:26:33;99114.84;;;16.76;61.60
15314;BME280;7757;52.626;4.746;2023-03-31T08:29:19;99105.94;;;16.76;61.59
15314;BME280;7757;52.626;4.746;2023-03-31T08:32:04;99102.16;;;16.82;61.30
15314;BME280;7757;52.626;4.746;2023-03-31T08:34:50;99105.16;;;17.00;61.48
15314;BME280;7757;52.626;4.746;2023-03-31T08:37:37;99104.06;;;17.06;60.64
15314;BME280;7757;52.626;4.746;2023-03-31T08:40:25;99085.94;;;17.02;60.54
15314;BME280;7757;52.626;4.746;2023-03-31T08:43:13;99090.25;;;16.98;61.45
15314;BME280;7757;52.626;4.746;2023-03-31T08:46:02;99093.81;;;17.03;60.98
15314;BME280;7757;52.626;4.746;2023-03-31T08:48:50;99074.59;;;16.90;61.24
15314;BME280;7757;52.626;4.746;2023-03-31T08:51:39;99084.31;;;17.01;60.88
15314;BME280;7757;52.626;4.746;2023-03-31T08:54:31;99081.38;;;17.02;60.85
15314;BME280;7757;52.626;4.746;2023-03-31T08:57:19;99082.69;;;17.20;60.29
15314;BME280;7757;52.626;4.746;2023-03-31T09:00:12;99078.91;;;17.26;60.54
15314;BME280;7757;52.626;4.746;2023-03-31T09:03:00;99077.84;;;17.27;60.53
15314;BME280;7757;52.626;4.746;2023-03-31T09:05:51;99073.53;;;17.21;60.25
15314;BME280;7757;52.626;4.746;2023-03-31T09:08:42;99063.50;;;17.37;60.03
15314;BME280;7757;52.626;4.746;2023-03-31T09:11:34;99070.53;;;17.38;60.34
15314;BME280;7757;52.626;4.746;2023-03-31T09:14:25;99066.47;;;17.35;60.06
15314;BME280;7757;52.626;4.746;2023-03-31T09:17:17;99062.94;;;17.45;59.42
15314;BME280;7757;52.626;4.746;2023-03-31T09:20:10;99058.56;;;17.54;59.59
15314;BME280;7757;52.626;4.746;2023-03-31T09:23:00;99047.25;;;17.57;59.17
15314;BME280;7757;52.626;4.746;2023-03-31T09:25:48;99053.16;;;17.69;58.61
15314;BME280;7757;52.626;4.746;2023-03-31T09:28:37;99036.69;;;17.60;58.75
15314;BME280;7757;52.626;4.746;2023-03-31T09:31:24;99042.13;;;17.55;59.41
15314;BME280;7757;52.626;4.746;2023-03-31T09:34:13;99042.94;;;17.46;59.33
15314;BME280;7757;52.626;4.746;2023-03-31T09:36:58;99030.00;;;17.22;60.09
15314;BME280;7757;52.626;4.746;2023-03-31T09:39:44;99042.44;;;17.18;60.03
15314;BME280;7757;52.626;4.746;2023-03-31T09:42:29;99038.13;;;17.12;60.41
15314;BME280;7757;52.626;4.746;2023-03-31T09:45:18;99037.34;;;17.12;60.64
15314;BME280;7757;52.626;4.746;2023-03-31T09:48:10;99043.81;;;17.06;60.67
15314;BME280;7757;52.626;4.746;2023-03-31T09:50:58;99034.91;;;16.95;60.86
15314;BME280;7757;52.626;4.746;2023-03-31T09:53:47;99046.50;;;17.01;60.57
15314;BME280;7757;52.626;4.746;2023-03-31T09:56:44;99037.59;;;16.95;60.48
15314;BME280;7757;52.626;4.746;2023-03-31T09:59:32;99041.94;;;17.11;60.65
15314;BME280;7757;52.626;4.746;2023-03-31T10:02:33;99022.97;;;17.21;59.82
15314;BME280;7757;52.626;4.746;2023-03-31T10:05:28;99035.97;;;17.19;59.76
15314;BME280;7757;52.626;4.746;2023-03-31T10:08:19;99030.56;;;17.09;60.75
15314;BME280;7757;52.626;4.746;2023-03-31T10:11:09;99022.47;;;17.19;59.77
15314;BME280;7757;52.626;4.746;2023-03-31T10:14:00;99014.94;;;17.06;60.40
15314;BME280;7757;52.626;4.746;2023-03-31T10:16:48;99026.50;;;17.22;60.25
15314;BME280;7757;52.626;4.746;2023-03-31T10:19:35;99007.03;;;17.30;59.59
15314;BME280;7757;52.626;4.746;2023-03-31T10:22:31;99011.38;;;17.26;59.70
15314;BME280;7757;52.626;4.746;2023-03-31T10:25:21;99018.06;;;17.44;59.63
15314;BME280;7757;52.626;4.746;2023-03-31T10:28:10;99008.06;;;17.39;59.30
15314;BME280;7757;52.626;4.746;2023-03-31T10:30:58;99014.06;;;17.31;59.38
15314;BME280;7757;52.626;4.746;2023-03-31T10:33:49;99001.59;;;17.40;59.74
15314;BME280;7757;52.626;4.746;2023-03-31T10:36:37;98996.97;;;17.51;59.21
15314;BME280;7757;52.626;4.746;2023-03-31T10:39:30;98997.78;;;17.46;59.48
15314;BME280;7757;52.626;4.746;2023-03-31T10:42:21;98983.22;;;17.42;59.30
15314;BME280;7757;52.626;4.746;2023-03-31T10:45:23;98987.00;;;17.41;59.31
15314;BME280;7757;52.626;4.746;2023-03-31T10:48:17;98971.34;;;17.38;59.52
15314;BME280;7757;52.626;4.746;2023-03-31T10:51:05;98991.56;;;17.46;58.94
15314;BME280;7757;52.626;4.746;2023-03-31T10:54:00;98981.06;;;17.44;59.53
15314;BME280;7757;52.626;4.746;2023-03-31T10:56:46;98985.97;;;17.27;59.98
15314;BME280;7757;52.626;4.746;2023-03-31T10:59:45;98980.31;;;17.23;59.74
15314;BME280;7757;52.626;4.746;2023-03-31T11:02:52;98985.44;;;17.20;60.09
15314;BME280;7757;52.626;4.746;2023-03-31T11:05:45;98976.00;;;17.17;60.14
15314;BME280;7757;52.626;4.746;2023-03-31T11:08:44;98987.34;;;17.19;60.21
15314;BME280;7757;52.626;4.746;2023-03-31T11:11:47;98993.03;;;17.18;60.09
15314;BME280;7757;52.626;4.746;2023-03-31T11:14:47;98983.81;;;17.29;59.50
15314;BME280;7757;52.626;4.746;2023-03-31T11:17:49;98978.63;;;17.43;59.18
15314;BME280;7757;52.626;4.746;2023-03-31T11:20:44;98980.25;;;17.44;58.98
15314;BME280;7757;52.626;4.746;2023-03-31T11:23:40;98975.97;;;17.33;59.38
15314;BME280;7757;52.626;4.746;2023-03-31T11:26:32;98973.00;;;17.19;59.68
15314;BME280;7757;52.626;4.746;2023-03-31T11:29:31;98978.41;;;17.19;60.33
15314;BME280;7757;52.626;4.746;2023-03-31T11:35:47;98975.72;;;17.24;59.83
15314;BME280;7757;52.626;4.746;2023-03-31T11:38:47;98975.97;;;17.22;59.78
15314;BME280;7757;52.626;4.746;2023-03-31T11:41:41;98971.09;;;17.35;59.23
15314;BME280;7757;52.626;4.746;2023-03-31T11:44:36;98961.63;;;17.37;59.46
15314;BME280;7757;52.626;4.746;2023-03-31T11:47:25;98968.63;;;17.33;59.54
15314;BME280;7757;52.626;4.746;2023-03-31T11:50:14;98968.34;;;17.40;59.11
15314;BME280;7757;52.626;4.746;2023-03-31T11:53:02;98960.56;;;17.28;59.67
15314;BME280;7757;52.626;4.746;2023-03-31T11:55:52;98951.09;;;17.30;59.63
15314;BME280;7757;52.626;4.746;2023-03-31T11:58:42;98943.78;;;17.36;59.43
15314;BME280;7757;52.626;4.746;2023-03-31T12:01:36;98934.63;;;17.32;59.24
15314;BME280;7757;52.626;4.746;2023-03-31T12:04:30;98931.97;;;17.17;59.99
15314;BME280;7757;52.626;4.746;2023-03-31T12:07:22;98924.41;;;17.14;59.73
15314;BME280;7757;52.626;4.746;2023-03-31T12:10:16;98935.47;;;17.17;60.06
15314;BME280;7757;52.626;4.746;2023-03-31T12:13:25;98926.59;;;17.02;59.93
15314;BME280;7757;52.626;4.746;2023-03-31T12:16:18;98930.06;;;17.17;59.74
15314;BME280;7757;52.626;4.746;2023-03-31T12:19:12;98932.00;;;17.12;60.08
15314;BME280;7757;52.626;4.746;2023-03-31T12:22:04;98929.00;;;17.13;59.73
15314;BME280;7757;52.626;4.746;2023-03-31T12:24:53;98930.91;;;17.08;60.01
15314;BME280;7757;52.626;4.746;2023-03-31T12:27:40;98940.41;;;17.00;60.63
15314;BME280;7757;52.626;4.746;2023-03-31T12:30:30;98933.38;;;16.99;60.30
15314;BME280;7757;52.626;4.746;2023-03-31T12:33:19;98926.06;;;17.05;60.45
15314;BME280;7757;52.626;4.746;2023-03-31T12:36:17;98927.63;;;17.21;59.92
15314;BME280;7757;52.626;4.746;2023-03-31T12:39:21;98932.50;;;17.19;59.56
15314;BME280;7757;52.626;4.746;2023-03-31T12:42:38;98931.16;;;17.16;60.24
15314;BME280;7757;52.626;4.746;2023-03-31T12:45:29;98916.31;;;17.14;59.62
15314;BME280;7757;52.626;4.746;2023-03-31T12:48:37;98903.91;;;17.08;59.98
15314;BME280;7757;52.626;4.746;2023-03-31T12:55:10;98912.72;;;17.34;60.31
15314;BME280;7757;52.626;4.746;2023-03-31T12:58:36;98903.00;;;17.33;60.11
15314;BME280;7757;52.626;4.746;2023-03-31T13:01:24;98896.25;;;17.25;59.33
15314;BME280;7757;52.626;4.746;2023-03-31T13:04:17;98888.41;;;17.28;59.52
15314;BME280;7757;52.626;4.746;2023-03-31T13:07:11;98891.38;;;17.32;60.15
15314;BME280;7757;52.626;4.746;2023-03-31T13:09:57;98875.97;;;17.27;59.64
15314;BME280;7757;52.626;4.746;2023-03-31T13:12:59;98888.72;;;17.27;59.48
15314;BME280;7757;52.626;4.746;2023-03-31T13:15:49;98873.88;;;17.19;60.18
15314;BME280;7757;52.626;4.746;2023-03-31T13:18:35;98864.97;;;17.14;59.90
15314;BME280;7757;52.626;4.746;2023-03-31T13:21:26;98863.91;;;17.10;59.94
15314;BME280;7757;52.626;4.746;2023-03-31T13:24:13;98869.59;;;17.08;60.55
15314;BME280;7757;52.626;4.746;2023-03-31T13:27:28;98873.13;;;17.04;60.33
15314;BME280;7757;52.626;4.746;2023-03-31T13:30:44;98869.31;;;17.10;60.37
15314;BME280;7757;52.626;4.746;2023-03-31T13:33:33;98862.84;;;17.11;60.45
15314;BME280;7757;52.626;4.746;2023-03-31T13:36:53;98857.47;;;17.06;60.09
15314;BME280;7757;52.626;4.746;2023-03-31T13:43:42;98860.19;;;16.96;60.19
15314;BME280;7757;52.626;4.746;2023-03-31T13:50:04;98878.00;;;16.92;60.36
15314;BME280;7757;52.626;4.746;2023-03-31T13:52:57;98862.31;;;17.09;60.42
15314;BME280;7757;52.626;4.746;2023-03-31T13:55:57;98854.44;;;17.12;59.60
15314;BME280;7757;52.626;4.746;2023-03-31T14:02:26;98837.69;;;17.15;59.54
15314;BME280;7757;52.626;4.746;2023-03-31T14:05:32;98843.28;;;17.34;59.90
15314;BME280;7757;52.626;4.746;2023-03-31T14:08:29;98826.66;;;17.12;59.60
15314;BME280;7757;52.626;4.746;2023-03-31T14:11:21;98841.41;;;17.24;59.59
15314;BME280;7757;52.626;4.746;2023-03-31T14:14:13;98843.06;;;17.20;60.03
15314;BME280;7757;52.626;4.746;2023-03-31T14:16:59;98834.41;;;17.18;60.18
15314;BME280;7757;52.626;4.746;2023-03-31T14:19:59;98837.72;;;17.10;60.17
15314;BME280;7757;52.626;4.746;2023-03-31T14:23:00;98830.69;;;17.09;60.64
15314;BME280;7757;52.626;4.746;2023-03-31T14:25:53;98820.94;;;17.13;60.03
15314;BME280;7757;52.626;4.746;2023-03-31T14:29:01;98818.81;;;17.10;59.74
15314;BME280;7757;52.626;4.746;2023-03-31T14:31:59;98829.34;;;17.12;60.00
15314;BME280;7757;52.626;4.746;2023-03-31T14:34:52;98827.69;;;17.16;60.15
15314;BME280;7757;52.626;4.746;2023-03-31T14:37:41;98820.34;;;17.26;59.53
15314;BME280;7757;52.626;4.746;2023-03-31T14:40:26;98822.50;;;17.29;59.75
15314;BME280;7757;52.626;4.746;2023-03-31T14:43:17;98824.66;;;17.33;59.66
15314;BME280;7757;52.626;4.746;2023-03-31T14:46:05;98824.44;;;17.19;60.11
15314;BME280;7757;52.626;4.746;2023-03-31T14:48:52;98829.09;;;17.08;60.60
15314;BME280;7757;52.626;4.746;2023-03-31T14:51:42;98833.09;;;17.16;60.42
15314;BME280;7757;52.626;4.746;2023-03-31T14:54:33;98815.75;;;17.27;60.28
15314;BME280;7757;52.626;4.746;2023-03-31T14:57:24;98816.03;;;17.25;60.15
15314;BME280;7757;52.626;4.746;2023-03-31T15:00:15;98807.16;;;17.20;60.19
15314;BME280;7757;52.626;4.746;2023-03-31T15:03:06;98799.84;;;17.15;59.86
15314;BME280;7757;52.626;4.746;2023-03-31T15:05:56;98811.50;;;17.11;60.06
15314;BME280;7757;52.626;4.746;2023-03-31T15:08:42;98793.19;;;16.98;60.25
15314;BME280;7757;52.626;4.746;2023-03-31T15:11:29;98813.69;;;17.09;60.75
15314;BME280;7757;52.626;4.746;2023-03-31T15:14:15;98808.81;;;17.11;60.73
15314;BME280;7757;52.626;4.746;2023-03-31T15:17:01;98799.94;;;17.05;60.66
15314;BME280;7757;52.626;4.746;2023-03-31T15:19:52;98794.03;;;16.93;61.15
15314;BME280;7757;52.626;4.746;2023-03-31T15:22:39;98801.03;;;16.99;60.51
15314;BME280;7757;52.626;4.746;2023-03-31T15:25:28;98789.16;;;16.95;60.69
15314;BME280;7757;52.626;4.746;2023-03-31T15:28:17;98792.38;;;17.02;61.06
15314;BME280;7757;52.626;4.746;2023-03-31T15:31:02;98792.94;;;16.99;60.93
15314;BME280;7757;52.626;4.746;2023-03-31T15:33:47;98794.56;;;17.00;60.62